Terminal Aerodrome Forecast
Issued by NWS New Orleans/Baton Rouge, LA

Home | Current Version | Previous Version | Text Only | Print | Product List | Glossary On
Versions: 1 2 3 4 5 6 7 8 9 10 11 12 13 14 15 16 17 18 19 20 21 22 23 24 25 26
000
FTUS44 KLIX 232300
TAFNEW
TAF
KNEW 232321Z 2400/2424 VRB04KT P6SM FEW040
     FM240200 16005KT P6SM SKC
     FM240800 18004KT P6SM SCT020
     FM241430 18009KT P6SM SCT030=

USA.gov is the U.S. government's official web portal to all federal, state and local government web resources and services.